Time;durP1;ratioP1;P1;durP2;ratioP2;P2;SDS_P1;SDS_P2;PMS_P1;PMS_P2;Temp;Humidity;BMP_temperature;BMP_pressure;BME280_temperature;BME280_humidity;BME280_pressure;Samples;Min_cycle;Max_cycle;Signal;HPM_P1;HPM_P2
2022/03/27 00:01:53;;;;;;;3.20;2.90;;;7.20;99.90;;;;;;649863;221;26559;-65
2022/03/27 00:04:21;;;;;;;2.90;2.70;;;7.20;99.90;;;;;;625861;230;26615;-66
2022/03/27 00:06:49;;;;;;;2.80;2.60;;;7.20;99.90;;;;;;649785;221;26759;-65
2022/03/27 00:09:16;;;;;;;2.90;2.70;;;7.20;99.90;;;;;;637745;225;26736;-66
2022/03/27 00:11:43;;;;;;;2.97;2.78;;;7.20;99.90;;;;;;649848;221;26559;-65
2022/03/27 00:14:10;;;;;;;2.80;2.60;;;7.10;99.90;;;;;;637723;225;27077;-67
2022/03/27 00:16:38;;;;;;;3.17;2.87;;;7.10;99.90;;;;;;651292;219;26579;-66
2022/03/27 00:19:06;;;;;;;2.80;2.60;;;7.20;99.90;;;;;;627169;229;26565;-66
2022/03/27 00:21:33;;;;;;;2.83;2.60;;;7.20;99.90;;;;;;650826;221;26799;-65
2022/03/27 00:24:01;;;;;;;2.85;2.65;;;7.10;99.90;;;;;;626778;229;26602;-66
2022/03/27 00:26:29;;;;;;;2.80;2.60;;;7.10;99.90;;;;;;650504;221;26850;-66
2022/03/27 00:28:56;;;;;;;3.25;2.95;;;7.10;99.90;;;;;;638445;225;26513;-65
2022/03/27 00:31:23;;;;;;;3.03;2.83;;;7.00;99.90;;;;;;650534;221;26802;-66
2022/03/27 00:33:50;;;;;;;2.92;2.60;;;7.00;99.90;;;;;;638251;225;26455;-66
2022/03/27 00:36:17;;;;;;;2.90;2.70;;;7.00;99.90;;;;;;650123;221;26797;-65
2022/03/27 00:38:45;;;;;;;3.20;2.90;;;6.90;99.90;;;;;;638119;225;26428;-66
2022/03/27 00:41:14;;;;;;;3.03;2.80;;;6.90;99.90;;;;;;650242;221;26485;-66
2022/03/27 00:43:41;;;;;;;2.87;2.67;;;6.90;99.90;;;;;;638047;225;26548;-66
2022/03/27 00:46:08;;;;;;;3.03;2.83;;;6.80;99.90;;;;;;650141;221;26539;-65
2022/03/27 00:48:36;;;;;;;2.83;2.62;;;6.80;99.90;;;;;;638114;225;26463;-65
2022/03/27 00:51:03;;;;;;;3.15;2.95;;;6.80;99.90;;;;;;650087;221;26523;-65
2022/03/27 00:53:31;;;;;;;2.95;2.75;;;6.70;99.90;;;;;;637735;225;26514;-65
2022/03/27 00:55:58;;;;;;;3.10;2.90;;;6.60;99.90;;;;;;649804;221;27290;-65
2022/03/27 00:58:25;;;;;;;3.05;2.83;;;6.60;99.90;;;;;;637893;225;26463;-65
2022/03/27 01:00:57;;;;;;;2.80;2.60;;;6.60;99.90;;;;;;649927;221;26553;-65
2022/03/27 01:03:25;;;;;;;2.65;2.50;;;6.60;99.90;;;;;;637263;225;26562;-65
2022/03/27 01:05:52;;;;;;;3.00;2.80;;;6.60;99.90;;;;;;649724;221;26780;-66
2022/03/27 01:09:35;;;;;;;2.90;2.70;;;6.50;99.90;;;;;;637876;225;26502;-65
2022/03/27 01:10:47;;;;;;;3.25;3.05;;;6.50;99.90;;;;;;647878;221;26558;-65
2022/03/27 01:13:16;;;;;;;2.90;2.70;;;6.50;99.90;;;;;;637763;225;26511;-65
2022/03/27 01:15:43;;;;;;;3.15;2.85;;;6.50;99.90;;;;;;637730;225;26527;-65
2022/03/27 01:18:12;;;;;;;2.67;2.47;;;6.50;99.90;;;;;;649783;221;26574;-65
2022/03/27 01:20:40;;;;;;;3.05;2.85;;;6.40;99.90;;;;;;637657;225;26506;-65
2022/03/27 01:23:07;;;;;;;3.10;2.90;;;6.40;99.90;;;;;;649830;221;26773;-65
2022/03/27 01:25:35;;;;;;;2.90;2.70;;;6.40;99.90;;;;;;637639;225;26504;-65
2022/03/27 01:28:03;;;;;;;3.20;2.90;;;6.30;99.90;;;;;;651212;219;26553;-65
2022/03/27 01:30:31;;;;;;;3.05;2.83;;;6.30;99.90;;;;;;627096;229;26568;-65
2022/03/27 01:32:58;;;;;;;2.75;2.55;;;6.20;99.90;;;;;;650893;221;26782;-65
2022/03/27 01:35:26;;;;;;;3.00;2.80;;;6.20;99.90;;;;;;638686;225;26548;-64
2022/03/27 01:37:53;;;;;;;3.35;3.05;;;6.20;99.90;;;;;;650498;221;26576;-65
2022/03/27 01:40:21;;;;;;;3.05;2.85;;;6.20;99.90;;;;;;638401;225;26527;-66
2022/03/27 01:42:49;;;;;;;3.00;2.70;;;6.20;99.90;;;;;;650504;221;26789;-65
2022/03/27 01:45:16;;;;;;;2.67;2.53;;;6.20;99.90;;;;;;626353;229;26570;-66
2022/03/27 01:47:44;;;;;;;2.90;2.70;;;6.20;99.90;;;;;;650214;221;26525;-65
2022/03/27 01:50:12;;;;;;;2.45;2.35;;;6.10;99.90;;;;;;638056;225;26472;-65
2022/03/27 01:52:40;;;;;;;2.55;2.45;;;6.10;99.90;;;;;;650118;221;26519;-64
2022/03/27 01:55:07;;;;;;;3.20;3.00;;;6.10;99.90;;;;;;638035;225;26714;-64
2022/03/27 01:57:34;;;;;;;3.30;3.10;;;6.10;99.90;;;;;;638478;225;26666;-64
2022/03/27 02:00:04;;;;;;;2.72;2.53;;;6.20;99.90;;;;;;650547;221;26489;-65
2022/03/27 02:02:30;;;;;;;2.80;2.60;;;6.10;99.90;;;;;;626486;230;26532;-64
2022/03/27 02:04:57;;;;;;;3.45;3.15;;;6.10;99.90;;;;;;650169;221;26548;-64
2022/03/27 02:07:24;;;;;;;2.97;2.75;;;6.10;99.90;;;;;;638115;225;26688;-65
2022/03/27 02:09:51;;;;;;;3.70;3.40;;;6.10;99.90;;;;;;650220;221;26519;-65
2022/03/27 02:12:18;;;;;;;2.70;2.50;;;6.10;99.90;;;;;;626227;230;26572;-65
2022/03/27 02:14:46;;;;;;;2.78;2.62;;;6.00;99.90;;;;;;644030;221;26516;-64
2022/03/27 02:17:13;;;;;;;3.05;2.85;;;6.00;99.90;;;;;;638129;225;26512;-65
2022/03/27 02:19:41;;;;;;;3.17;2.97;;;6.00;99.90;;;;;;638053;225;26508;-65
2022/03/27 02:22:08;;;;;;;3.30;3.00;;;6.00;99.90;;;;;;638080;225;27017;-66
2022/03/27 02:24:35;;;;;;;2.90;2.70;;;6.10;99.90;;;;;;638093;225;26500;-65
2022/03/27 02:27:04;;;;;;;3.20;3.00;;;6.10;99.90;;;;;;638167;225;26496;-65
2022/03/27 02:29:30;;;;;;;2.85;2.72;;;6.00;99.90;;;;;;638047;225;26476;-65
2022/03/27 02:31:57;;;;;;;3.30;3.10;;;6.00;99.90;;;;;;640206;225;26509;-65
2022/03/27 02:34:26;;;;;;;3.10;2.90;;;6.00;99.90;;;;;;640170;225;26543;-65
2022/03/27 02:36:52;;;;;;;3.00;2.80;;;6.00;99.90;;;;;;638139;225;26490;-66
2022/03/27 02:39:20;;;;;;;3.10;2.90;;;6.00;99.90;;;;;;641319;222;26712;-66
2022/03/27 02:41:48;;;;;;;3.15;2.95;;;5.90;99.90;;;;;;641659;224;26477;-65
2022/03/27 02:44:16;;;;;;;3.08;2.87;;;5.90;99.90;;;;;;639163;224;26556;-65
2022/03/27 02:46:42;;;;;;;2.90;2.70;;;5.90;99.90;;;;;;639084;224;26582;-65
2022/03/27 02:49:09;;;;;;;3.20;3.00;;;5.90;99.90;;;;;;638747;224;26745;-65
2022/03/27 02:51:39;;;;;;;3.08;2.87;;;5.80;99.90;;;;;;638780;225;26470;-65
2022/03/27 02:54:06;;;;;;;3.25;3.03;;;5.80;99.90;;;;;;638692;225;26493;-65
2022/03/27 02:56:34;;;;;;;3.20;3.00;;;5.80;99.90;;;;;;638621;225;26549;-65
2022/03/27 02:59:01;;;;;;;3.08;2.87;;;5.80;99.90;;;;;;638472;225;26584;-65
2022/03/27 03:01:29;;;;;;;3.10;2.80;;;5.80;99.90;;;;;;638481;225;26727;-65
2022/03/27 03:03:56;;;;;;;3.50;3.20;;;5.80;99.90;;;;;;638391;225;26834;-66
2022/03/27 03:06:25;;;;;;;3.10;2.90;;;5.80;99.90;;;;;;638385;225;26564;-66
2022/03/27 03:08:52;;;;;;;2.90;2.70;;;5.80;99.90;;;;;;638450;225;26563;-66
2022/03/27 03:11:20;;;;;;;2.90;2.70;;;5.70;99.90;;;;;;638423;225;26536;-66
2022/03/27 03:13:49;;;;;;;3.03;2.83;;;5.70;99.90;;;;;;638317;225;26779;-66
2022/03/27 03:16:16;;;;;;;3.47;3.17;;;5.60;99.90;;;;;;639110;224;26522;-65
2022/03/27 03:18:44;;;;;;;4.97;3.05;;;5.60;99.90;;;;;;636044;225;26513;-64
2022/03/27 03:21:11;;;;;;;5.28;3.30;;;5.60;99.90;;;;;;632946;225;26522;-66
2022/03/27 03:23:39;;;;;;;9.05;4.12;;;5.60;99.90;;;;;;632676;227;26550;-66
2022/03/27 03:26:06;;;;;;;7.90;3.87;;;5.70;99.90;;;;;;634844;225;26569;-66
2022/03/27 03:28:34;;;;;;;3.92;3.53;;;5.60;99.90;;;;;;648933;221;26523;-66
2022/03/27 03:31:02;;;;;;;5.25;3.35;;;5.60;99.90;;;;;;646862;221;26526;-68
2022/03/27 03:33:29;;;;;;;3.75;3.35;;;5.60;99.90;;;;;;637650;225;27172;-66
2022/03/27 03:35:56;;;;;;;4.53;3.28;;;5.60;99.90;;;;;;640848;221;26531;-66
2022/03/27 03:38:23;;;;;;;3.05;2.85;;;5.60;99.90;;;;;;637929;225;26718;-67
2022/03/27 03:40:51;;;;;;;2.97;2.78;;;5.50;99.90;;;;;;638018;225;26542;-66
2022/03/27 03:43:20;;;;;;;4.43;3.40;;;5.50;99.90;;;;;;639008;224;26605;-66
2022/03/27 03:45:47;;;;;;;3.50;3.20;;;5.50;99.90;;;;;;637962;225;26535;-66
2022/03/27 03:48:14;;;;;;;4.82;3.20;;;5.50;99.90;;;;;;638075;225;26728;-67
2022/03/27 03:50:41;;;;;;;4.47;3.28;;;5.60;99.90;;;;;;637779;223;26505;-66
2022/03/27 03:53:09;;;;;;;3.37;2.97;;;5.60;99.90;;;;;;634048;227;26781;-66
2022/03/27 03:55:36;;;;;;;4.07;3.20;;;5.60;99.90;;;;;;636743;225;26589;-66
2022/03/27 03:58:04;;;;;;;3.78;2.95;;;5.60;99.90;;;;;;650769;221;26794;-66
2022/03/27 04:00:32;;;;;;;3.62;3.33;;;5.50;99.90;;;;;;634148;225;26510;-67
2022/03/27 04:03:00;;;;;;;3.05;2.85;;;5.60;99.90;;;;;;648708;221;26522;-67
2022/03/27 04:05:27;;;;;;;3.45;3.15;;;5.60;99.90;;;;;;641892;223;27179;-66
2022/03/27 04:07:54;;;;;;;3.80;3.40;;;5.50;99.90;;;;;;638640;225;26512;-66
2022/03/27 04:10:21;;;;;;;3.25;3.00;;;5.50;99.90;;;;;;649189;221;26761;-66
2022/03/27 04:12:48;;;;;;;3.58;3.28;;;5.50;99.90;;;;;;634970;225;26529;-66
2022/03/27 04:15:15;;;;;;;3.50;3.30;;;5.50;99.90;;;;;;620941;229;26590;-66
2022/03/27 04:17:44;;;;;;;3.75;3.45;;;5.60;99.90;;;;;;631149;227;26498;-66
2022/03/27 04:20:12;;;;;;;3.45;3.10;;;5.50;99.90;;;;;;633034;225;26532;-66
2022/03/27 04:22:40;;;;;;;3.50;3.20;;;5.50;99.90;;;;;;638387;225;26557;-66
2022/03/27 04:25:07;;;;;;;3.58;3.20;;;5.50;99.90;;;;;;648134;221;27173;-66
2022/03/27 04:27:35;;;;;;;3.50;3.17;;;5.50;99.90;;;;;;648028;221;26518;-66
2022/03/27 04:30:03;;;;;;;3.85;3.47;;;5.50;99.90;;;;;;629323;225;26806;-66
2022/03/27 04:32:30;;;;;;;3.60;3.30;;;5.50;99.90;;;;;;631522;227;26822;-66
2022/03/27 04:34:57;;;;;;;3.78;3.47;;;5.50;99.90;;;;;;620805;228;26532;-66
2022/03/27 04:37:24;;;;;;;6.82;3.60;;;5.40;99.90;;;;;;635145;225;26735;-66
2022/03/27 04:39:59;;;;;;;3.60;3.30;;;5.40;99.90;;;;;;616529;232;26612;-66
2022/03/27 04:42:20;;;;;;;3.67;3.37;;;5.40;99.90;;;;;;615495;230;26831;-66
2022/03/27 04:44:47;;;;;;;3.45;3.25;;;5.40;99.90;;;;;;617986;230;26620;-66
2022/03/27 04:47:14;;;;;;;3.87;3.58;;;5.40;99.90;;;;;;644313;221;26746;-66
2022/03/27 04:49:42;;;;;;;4.87;3.58;;;5.40;99.90;;;;;;638079;225;26504;-66
2022/03/27 04:52:11;;;;;;;3.80;3.50;;;5.50;99.90;;;;;;643870;223;26508;-66
2022/03/27 04:54:38;;;;;;;3.80;3.42;;;5.50;99.90;;;;;;637899;225;26503;-66
2022/03/27 04:57:05;;;;;;;3.50;3.20;;;5.50;99.90;;;;;;638458;225;26744;-66
2022/03/27 04:59:33;;;;;;;3.50;3.20;;;5.50;99.90;;;;;;618952;230;26571;-66
2022/03/27 05:02:00;;;;;;;3.42;3.20;;;5.60;99.90;;;;;;615866;231;27253;-66
2022/03/27 05:04:27;;;;;;;3.70;3.42;;;5.50;99.90;;;;;;632593;227;26785;-66
2022/03/27 05:06:54;;;;;;;3.70;3.40;;;5.60;99.90;;;;;;635607;225;26539;-66
2022/03/27 05:09:21;;;;;;;3.42;3.22;;;5.50;99.90;;;;;;616572;231;26838;-66
2022/03/27 05:11:50;;;;;;;3.90;3.60;;;5.50;99.90;;;;;;635296;225;26510;-66
2022/03/27 05:14:17;;;;;;;4.00;3.60;;;5.60;99.90;;;;;;640756;221;26581;-66
2022/03/27 05:16:45;;;;;;;3.28;3.05;;;5.60;99.90;;;;;;635579;225;26627;-66
2022/03/27 05:19:13;;;;;;;3.55;3.25;;;5.60;99.90;;;;;;625549;226;26737;-66
2022/03/27 05:21:40;;;;;;;4.03;3.72;;;5.60;99.90;;;;;;633705;225;26506;-66
2022/03/27 05:24:09;;;;;;;4.18;3.83;;;5.60;99.90;;;;;;632042;226;27220;-66
2022/03/27 05:26:34;;;;;;;3.67;3.37;;;5.60;99.90;;;;;;633360;226;26565;-66
2022/03/27 05:29:04;;;;;;;3.80;3.50;;;5.70;99.90;;;;;;638138;225;27233;-66
2022/03/27 05:31:29;;;;;;;3.60;3.30;;;5.80;99.90;;;;;;646554;221;26598;-66
2022/03/27 05:33:56;;;;;;;3.58;3.28;;;5.80;99.90;;;;;;644701;223;26588;-66
2022/03/27 05:36:24;;;;;;;3.80;3.50;;;6.00;99.90;;;;;;638378;225;26566;-66
2022/03/27 05:38:51;;;;;;;3.30;3.10;;;6.00;99.90;;;;;;643784;221;26593;-67
2022/03/27 05:41:18;;;;;;;3.50;3.25;;;6.00;99.90;;;;;;630713;225;26520;-65
2022/03/27 05:43:46;;;;;;;4.20;3.17;;;5.90;99.90;;;;;;624326;230;26808;-66
2022/03/27 05:46:12;;;;;;;3.75;3.45;;;5.80;99.90;;;;;;635192;226;26586;-66
2022/03/27 05:48:40;;;;;;;3.75;3.45;;;5.80;99.90;;;;;;634767;225;26544;-66
2022/03/27 05:51:08;;;;;;;3.80;3.22;;;5.90;99.90;;;;;;636850;225;26552;-66
2022/03/27 05:53:36;;;;;;;4.37;3.70;;;5.90;99.90;;;;;;637652;225;26503;-66
2022/03/27 05:56:03;;;;;;;4.10;3.78;;;5.90;99.90;;;;;;637945;225;27187;-66
2022/03/27 05:58:30;;;;;;;3.42;3.12;;;6.10;99.90;;;;;;637776;224;26512;-66
2022/03/27 06:00:57;;;;;;;6.05;3.60;;;6.20;99.90;;;;;;637879;225;26777;-66
2022/03/27 06:03:24;;;;;;;3.95;3.65;;;6.20;99.90;;;;;;637962;225;26505;-66
2022/03/27 06:05:52;;;;;;;5.40;3.78;;;6.20;99.90;;;;;;637532;225;26867;-65
2022/03/27 06:08:19;;;;;;;3.67;3.37;;;6.40;99.90;;;;;;636411;225;26546;-66
2022/03/27 06:10:49;;;;;;;3.80;3.50;;;6.30;99.90;;;;;;637830;225;26555;-65
2022/03/27 06:13:16;;;;;;;3.58;3.28;;;6.30;99.90;;;;;;638175;223;26810;-66
2022/03/27 06:15:42;;;;;;;5.15;4.28;;;6.20;99.90;;;;;;639459;225;26603;-66
2022/03/27 06:18:09;;;;;;;4.03;3.62;;;6.30;99.90;;;;;;639267;225;26787;-67
2022/03/27 06:20:36;;;;;;;4.12;3.75;;;6.40;99.90;;;;;;638882;225;26563;-67
2022/03/27 06:23:03;;;;;;;4.30;3.90;;;6.50;99.90;;;;;;638768;225;26514;-67
2022/03/27 06:25:31;;;;;;;3.92;3.25;;;6.70;99.90;;;;;;638424;225;26546;-66
2022/03/27 06:27:59;;;;;;;4.43;4.03;;;6.70;99.90;;;;;;633996;225;26916;-66
2022/03/27 06:30:26;;;;;;;3.80;3.40;;;6.80;99.90;;;;;;636148;225;26485;-66
2022/03/27 06:32:53;;;;;;;4.07;3.78;;;6.90;99.90;;;;;;646210;221;26750;-66
2022/03/27 06:35:21;;;;;;;12.20;4.28;;;6.90;99.90;;;;;;634411;225;26553;-66
2022/03/27 06:37:47;;;;;;;4.00;3.70;;;7.10;99.90;;;;;;618666;231;26780;-66
2022/03/27 06:40:15;;;;;;;4.78;4.05;;;7.20;99.90;;;;;;636565;225;26515;-66
2022/03/27 06:42:43;;;;;;;3.85;3.55;;;7.30;99.90;;;;;;649757;221;26533;-67
2022/03/27 06:45:11;;;;;;;4.60;4.20;;;7.30;99.90;;;;;;645390;222;26595;-66
2022/03/27 06:47:39;;;;;;;4.25;3.85;;;7.30;99.90;;;;;;642707;222;26817;-66
2022/03/27 06:50:06;;;;;;;4.15;3.85;;;7.40;99.90;;;;;;638602;224;26508;-67
2022/03/27 06:52:34;;;;;;;4.30;3.90;;;7.50;99.90;;;;;;638526;221;26480;-66
2022/03/27 06:55:00;;;;;;;4.20;3.90;;;7.70;99.90;;;;;;649219;221;26784;-66
2022/03/27 06:57:28;;;;;;;3.70;3.40;;;7.80;99.90;;;;;;635263;225;26480;-68
2022/03/27 07:05:00;;;;;;;4.55;4.15;;;8.10;99.90;;;;;;630893;228;26829;-67
2022/03/27 07:07:28;;;;;;;4.40;4.07;;;8.00;99.90;;;;;;645921;220;26500;-66
2022/03/27 07:09:55;;;;;;;4.18;3.80;;;8.10;99.90;;;;;;644776;221;26745;-66
2022/03/27 07:12:23;;;;;;;3.87;3.58;;;8.30;99.90;;;;;;633814;225;26506;-66
2022/03/27 07:14:51;;;;;;;4.40;4.10;;;8.40;99.90;;;;;;616500;231;26583;-66
2022/03/27 07:17:18;;;;;;;3.90;3.58;;;8.30;99.90;;;;;;634202;225;26514;-67
2022/03/27 07:19:45;;;;;;;4.25;3.80;;;8.50;99.90;;;;;;649791;221;26549;-67
2022/03/27 07:22:12;;;;;;;3.50;3.20;;;8.60;99.90;;;;;;634166;225;26766;-65
2022/03/27 07:24:40;;;;;;;4.43;4.00;;;8.70;99.90;;;;;;632628;225;26517;-65
2022/03/27 07:27:08;;;;;;;4.05;3.75;;;8.80;99.90;;;;;;630031;227;26473;-66
2022/03/27 07:29:36;;;;;;;4.45;4.05;;;8.90;99.90;;;;;;631359;227;26553;-66
2022/03/27 07:32:03;;;;;;;3.78;3.47;;;9.10;99.90;;;;;;628033;229;26544;-66
2022/03/27 07:34:30;;;;;;;4.12;3.83;;;9.00;99.90;;;;;;627924;226;26750;-65
2022/03/27 07:36:57;;;;;;;3.62;3.33;;;9.10;99.90;;;;;;629533;225;26481;-66
2022/03/27 07:39:24;;;;;;;3.70;3.40;;;9.20;99.90;;;;;;650464;221;26557;-66
2022/03/27 07:41:52;;;;;;;3.85;3.55;;;9.30;99.90;;;;;;626494;229;26820;-66
2022/03/27 07:44:19;;;;;;;3.92;3.50;;;9.20;99.90;;;;;;641630;221;26502;-67
2022/03/27 07:46:47;;;;;;;4.12;3.72;;;9.30;99.90;;;;;;647994;221;26770;-68
2022/03/27 07:49:14;;;;;;;3.80;3.50;;;9.50;99.90;;;;;;644665;220;26596;-67
2022/03/27 07:51:42;;;;;;;3.70;3.45;;;9.60;99.90;;;;;;639535;221;26564;-67
2022/03/27 07:54:10;;;;;;;3.70;3.40;;;9.60;99.90;;;;;;647704;221;26625;-68
2022/03/27 07:56:37;;;;;;;3.80;3.50;;;9.60;99.90;;;;;;638121;224;26795;-67
2022/03/27 07:59:04;;;;;;;3.72;3.37;;;9.60;99.90;;;;;;645353;221;26473;-67
2022/03/27 08:01:31;;;;;;;4.00;3.60;;;9.60;99.90;;;;;;638244;224;27372;-67
2022/03/27 08:04:00;;;;;;;3.37;3.17;;;9.50;99.90;;;;;;647203;221;26514;-67
2022/03/27 08:06:29;;;;;;;3.53;3.22;;;9.60;99.90;;;;;;649697;221;26556;-67
2022/03/27 08:08:56;;;;;;;3.50;3.28;;;9.70;99.90;;;;;;635839;225;26546;-66
2022/03/27 08:11:23;;;;;;;3.80;3.50;;;9.60;99.90;;;;;;632611;227;26858;-67
2022/03/27 08:13:50;;;;;;;3.70;3.40;;;9.70;99.90;;;;;;632641;227;26551;-67
2022/03/27 08:16:17;;;;;;;3.72;3.42;;;9.80;99.90;;;;;;616514;231;26864;-67
2022/03/27 08:18:45;;;;;;;3.40;3.20;;;9.90;99.90;;;;;;634035;225;26519;-67
2022/03/27 08:21:12;;;;;;;3.62;3.40;;;10.00;99.60;;;;;;644329;221;26515;-68
2022/03/27 08:23:40;;;;;;;3.20;3.00;;;10.10;99.50;;;;;;645767;221;26511;-67
2022/03/27 08:28:40;;;;;;;3.58;3.33;;;10.20;98.90;;;;;;649746;221;26571;-67
2022/03/27 08:31:08;;;;;;;4.00;3.65;;;10.30;98.60;;;;;;633030;225;26546;-67
2022/03/27 08:33:36;;;;;;;3.58;3.33;;;10.30;98.40;;;;;;625690;226;26515;-67
2022/03/27 08:36:04;;;;;;;3.35;3.10;;;10.30;98.50;;;;;;634991;224;26603;-67
2022/03/27 08:38:31;;;;;;;3.58;3.28;;;10.30;98.50;;;;;;634550;224;26510;-67
2022/03/27 08:41:01;;;;;;;3.50;3.20;;;10.40;98.30;;;;;;632623;227;26510;-68
2022/03/27 08:43:26;;;;;;;3.25;3.05;;;10.50;98.10;;;;;;647963;221;26585;-67
2022/03/27 08:45:53;;;;;;;3.30;3.10;;;10.60;97.90;;;;;;649363;221;26793;-67
2022/03/27 08:48:20;;;;;;;3.15;2.85;;;10.70;97.60;;;;;;617490;229;26549;-66
2022/03/27 08:50:58;;;;;;;3.70;3.40;;;10.80;97.20;;;;;;619852;231;27226;-66
2022/03/27 08:53:23;;;;;;;3.20;3.00;;;10.80;97.00;;;;;;626759;227;26802;-68
2022/03/27 08:55:51;;;;;;;3.42;3.22;;;10.90;97.00;;;;;;630913;227;26561;-67
2022/03/27 08:58:19;;;;;;;3.28;3.08;;;10.80;96.50;;;;;;632468;225;26503;-67
2022/03/27 09:00:45;;;;;;;3.10;2.90;;;10.80;96.30;;;;;;621388;226;26755;-67
2022/03/27 09:03:13;;;;;;;3.95;3.20;;;10.90;96.30;;;;;;621369;229;26623;-67
2022/03/27 09:05:40;;;;;;;3.40;3.10;;;11.00;96.00;;;;;;622069;230;26851;-67
2022/03/27 09:08:09;;;;;;;3.60;3.30;;;11.10;95.80;;;;;;640168;221;26558;-67
2022/03/27 09:10:35;;;;;;;3.00;2.80;;;11.20;95.80;;;;;;639743;223;26808;-67
2022/03/27 09:13:03;;;;;;;3.15;2.95;;;11.40;95.50;;;;;;633033;227;26729;-66
2022/03/27 09:15:31;;;;;;;3.20;2.90;;;11.40;95.50;;;;;;635509;225;26535;-67
2022/03/27 09:18:00;;;;;;;3.00;2.80;;;11.50;95.30;;;;;;649738;221;26543;-68
2022/03/27 09:20:33;;;;;;;3.28;3.08;;;11.60;94.50;;;;;;628037;225;26450;-67
2022/03/27 09:23:21;;;;;;;2.87;2.67;;;11.60;94.50;;;;;;630372;227;26610;-67
2022/03/27 09:25:49;;;;;;;2.60;2.40;;;11.60;94.50;;;;;;618649;232;26568;-67
2022/03/27 09:28:25;;;;;;;3.05;2.85;;;11.60;93.90;;;;;;636705;225;26486;-67
2022/03/27 09:30:52;;;;;;;4.00;3.10;;;11.60;93.90;;;;;;632593;227;26578;-66
2022/03/27 09:33:39;;;;;;;3.10;2.90;;;11.60;93.60;;;;;;629756;227;26537;-67
2022/03/27 09:36:07;;;;;;;3.60;3.30;;;11.90;92.80;;;;;;619368;232;26586;-67
2022/03/27 09:38:35;;;;;;;3.22;2.90;;;12.00;91.80;;;;;;629113;225;26603;-67
2022/03/27 09:41:03;;;;;;;2.70;2.60;;;12.00;91.60;;;;;;645068;221;26548;-67
2022/03/27 09:43:31;;;;;;;2.80;2.60;;;12.10;92.00;;;;;;644784;221;26555;-67
2022/03/27 09:45:59;;;;;;;2.95;2.67;;;12.10;92.40;;;;;;649640;221;26596;-67
2022/03/27 09:48:26;;;;;;;3.33;2.92;;;12.10;92.10;;;;;;640936;220;26511;-67
2022/03/27 09:50:54;;;;;;;2.70;2.50;;;12.40;92.00;;;;;;647279;221;26811;-66
2022/03/27 09:53:26;;;;;;;3.00;2.80;;;12.50;91.70;;;;;;640060;224;26508;-67
2022/03/27 09:56:09;;;;;;;3.33;2.58;;;12.70;91.90;;;;;;649141;221;26511;-66
2022/03/27 09:58:43;;;;;;;3.28;3.00;;;13.00;91.30;;;;;;640432;221;26556;-67
2022/03/27 10:01:13;;;;;;;2.60;2.50;;;13.10;89.50;;;;;;638778;225;26740;-68
2022/03/27 10:03:52;;;;;;;2.80;2.60;;;12.70;89.50;;;;;;638690;225;26509;-67
2022/03/27 10:06:26;;;;;;;3.03;2.83;;;12.60;89.60;;;;;;648984;221;26696;-67
2022/03/27 10:08:53;;;;;;;3.10;2.78;;;12.60;88.70;;;;;;634945;225;26558;-67
2022/03/27 10:11:21;;;;;;;2.83;2.62;;;12.40;87.80;;;;;;615377;234;26798;-68
2022/03/27 10:13:48;;;;;;;2.97;2.62;;;12.20;87.60;;;;;;631167;227;26469;-68
2022/03/27 10:16:15;;;;;;;3.03;2.83;;;12.10;89.00;;;;;;628552;225;26812;-68
2022/03/27 10:18:43;;;;;;;2.55;2.45;;;12.20;88.00;;;;;;647622;221;26497;-68
2022/03/27 10:21:10;;;;;;;2.78;2.58;;;12.20;86.60;;;;;;638239;225;26762;-68
2022/03/27 10:23:37;;;;;;;2.45;2.35;;;12.40;87.50;;;;;;638802;224;26547;-68
2022/03/27 10:26:06;;;;;;;3.08;2.55;;;12.50;86.60;;;;;;640490;221;26528;-68
2022/03/27 10:28:34;;;;;;;2.40;2.30;;;12.50;86.20;;;;;;648783;221;26557;-66
2022/03/27 10:31:01;;;;;;;2.65;2.45;;;12.60;85.30;;;;;;642185;221;26495;-66
2022/03/27 10:33:30;;;;;;;2.80;2.60;;;12.60;84.70;;;;;;638119;225;26515;-68
2022/03/27 10:36:09;;;;;;;2.67;2.47;;;12.60;84.80;;;;;;638016;221;26544;-68
2022/03/27 10:38:52;;;;;;;2.50;2.37;;;12.60;84.90;;;;;;643728;223;26512;-68
2022/03/27 10:41:29;;;;;;;2.67;2.55;;;12.80;84.20;;;;;;643624;221;26578;-67
2022/03/27 10:44:37;;;;;;;2.55;2.35;;;12.60;84.60;;;;;;620593;230;26617;-67
2022/03/27 10:47:12;;;;;;;2.60;2.40;;;12.60;84.60;;;;;;641436;221;26802;-67
2022/03/27 10:49:39;;;;;;;2.62;2.42;;;12.60;84.50;;;;;;641656;221;26530;-67
2022/03/27 10:52:06;;;;;;;2.45;2.25;;;12.80;83.30;;;;;;641235;221;26480;-67
2022/03/27 10:54:33;;;;;;;2.47;2.30;;;12.80;83.10;;;;;;642566;221;26778;-68
2022/03/27 10:57:01;;;;;;;2.83;2.62;;;13.00;82.50;;;;;;639774;221;26561;-68
2022/03/27 10:59:27;;;;;;;2.60;2.40;;;13.00;80.80;;;;;;637567;223;26797;-68
2022/03/27 11:01:55;;;;;;;2.40;2.20;;;13.00;81.50;;;;;;637471;225;26541;-67
2022/03/27 11:04:25;;;;;;;2.47;2.28;;;13.00;82.10;;;;;;643772;221;26794;-67
2022/03/27 11:06:50;;;;;;;2.30;2.10;;;13.20;82.10;;;;;;632591;224;27129;-67
2022/03/27 11:09:30;;;;;;;2.62;2.42;;;13.30;82.50;;;;;;621335;230;26923;-68
2022/03/27 11:11:57;;;;;;;3.03;2.25;;;13.60;82.40;;;;;;642253;221;26489;-68
2022/03/27 11:14:24;;;;;;;2.40;1.90;;;13.70;81.80;;;;;;641947;221;26731;-68
2022/03/27 11:17:10;;;;;;;2.42;2.22;;;13.60;80.60;;;;;;641099;221;26566;-68
2022/03/27 11:19:40;;;;;;;2.53;2.33;;;13.70;79.60;;;;;;631228;225;26626;-68
2022/03/27 11:22:07;;;;;;;2.22;2.03;;;13.70;79.70;;;;;;630976;225;26504;-68
2022/03/27 11:24:34;;;;;;;2.80;2.22;;;13.70;78.80;;;;;;619586;230;26806;-67
2022/03/27 11:27:03;;;;;;;2.20;2.10;;;13.60;77.20;;;;;;632335;225;26523;-67
2022/03/27 11:29:30;;;;;;;3.45;2.25;;;13.60;77.20;;;;;;631844;225;26578;-67
2022/03/27 11:32:07;;;;;;;3.85;2.55;;;13.60;77.10;;;;;;631746;225;26754;-67
2022/03/27 11:34:32;;;;;;;3.55;2.97;;;13.70;76.60;;;;;;631909;225;26535;-67
2022/03/27 11:37:25;;;;;;;5.03;2.87;;;13.90;76.20;;;;;;617997;230;26806;-67
2022/03/27 11:39:51;;;;;;;5.80;3.00;;;14.10;74.50;;;;;;645187;221;26545;-67
2022/03/27 11:42:23;;;;;;;2.50;2.30;;;14.10;74.30;;;;;;630586;225;26474;-68
2022/03/27 11:47:34;;;;;;;3.28;2.47;;;14.10;72.30;;;;;;620234;230;26797;-67
2022/03/27 11:50:01;;;;;;;2.65;2.35;;;14.10;73.10;;;;;;631280;225;26471;-68
2022/03/27 11:52:29;;;;;;;2.75;2.50;;;14.00;74.60;;;;;;644244;221;26831;-67
2022/03/27 11:55:02;;;;;;;5.97;2.42;;;14.00;73.80;;;;;;632877;225;26746;-67
2022/03/27 11:57:29;;;;;;;3.40;2.42;;;14.00;74.00;;;;;;631087;226;26778;-67
2022/03/27 11:59:56;;;;;;;2.90;2.35;;;14.00;73.10;;;;;;631417;226;26554;-67
2022/03/27 12:02:24;;;;;;;2.95;2.20;;;13.90;73.50;;;;;;632951;225;26821;-67
2022/03/27 12:04:52;;;;;;;6.37;2.53;;;14.10;74.30;;;;;;632559;225;26478;-68
2022/03/27 12:07:21;;;;;;;2.97;2.60;;;14.10;74.30;;;;;;634350;225;26679;-69
2022/03/27 12:09:47;;;;;;;18.67;3.37;;;14.10;73.50;;;;;;641449;221;26508;-66
2022/03/27 12:12:14;;;;;;;8.15;2.50;;;14.10;73.30;;;;;;643160;220;27232;-67
2022/03/27 12:14:49;;;;;;;4.57;2.40;;;14.10;70.70;;;;;;642488;221;26511;-67
2022/03/27 12:17:18;;;;;;;2.37;2.17;;;14.40;70.20;;;;;;636544;224;26574;-67
2022/03/27 12:20:04;;;;;;;7.50;2.10;;;14.50;70.30;;;;;;637028;225;26538;-66
2022/03/27 12:22:41;;;;;;;5.03;2.33;;;14.50;70.30;;;;;;643390;221;26549;-67
2022/03/27 12:25:11;;;;;;;3.97;2.28;;;14.50;70.00;;;;;;645781;220;26508;-67
2022/03/27 12:30:09;;;;;;;5.22;2.33;;;14.50;68.20;;;;;;644058;221;26675;-65
2022/03/27 12:32:37;;;;;;;79.80;14.63;;;14.60;68.00;;;;;;643769;221;26572;-66
2022/03/27 12:35:06;;;;;;;171.62;26.27;;;14.60;66.50;;;;;;630720;225;26588;-65
2022/03/27 12:37:35;;;;;;;1999.90;335.33;;;14.60;66.50;;;;;;645255;221;26525;-66
2022/03/27 12:40:02;;;;;;;1999.90;611.85;;;14.70;66.40;;;;;;631724;225;26588;-66
2022/03/27 12:42:40;;;;;;;1999.90;362.33;;;14.80;96.30;;;;;;632496;225;26548;-64
2022/03/27 12:45:22;;;;;;;78.00;23.20;;;;;;;;;;643851;221;26655;-62
2022/03/27 12:47:54;;;;;;;28.33;9.77;;;15.40;93.10;;;;;;642491;220;26520;-63
2022/03/27 12:50:40;;;;;;;14.00;6.22;;;;;;;;;;633260;225;26988;-64
2022/03/27 12:53:12;;;;;;;8.60;4.30;;;;;;;;;;619831;229;26784;-64
2022/03/27 12:55:43;;;;;;;4.50;3.05;;;15.40;81.70;;;;;;624643;229;26612;-64
2022/03/27 12:58:12;;;;;;;6.45;3.90;;;15.20;70.30;;;;;;631878;226;26514;-65
2022/03/27 13:00:41;;;;;;;6.80;3.22;;;15.20;70.80;;;;;;632632;225;26684;-63
2022/03/27 13:03:13;;;;;;;7.03;3.33;;;15.10;75.20;;;;;;617942;232;26601;-63
2022/03/27 13:05:40;;;;;;;5.93;3.10;;;15.40;73.40;;;;;;627927;225;26538;-62
2022/03/27 13:08:08;;;;;;;4.82;2.90;;;15.30;69.60;;;;;;619350;230;26754;-62
2022/03/27 13:10:37;;;;;;;8.98;2.78;;;15.50;71.40;;;;;;648205;221;26511;-63
2022/03/27 13:13:02;;;;;;;5.72;2.83;;;15.60;70.00;;;;;;635940;225;26680;-63